createdAt,value
2019-02-26T00:01:26.327Z,72.50
2019-02-26T00:03:56.690Z,72.00
2019-02-26T00:06:27.858Z,71.50
2019-02-26T00:08:58.782Z,71.50
2019-02-26T00:11:28.992Z,71.60
2019-02-26T00:13:59.019Z,70.50
2019-02-26T00:16:28.330Z,70.10
2019-02-26T00:19:00.779Z,69.80
2019-02-26T00:21:29.297Z,69.50
2019-02-26T00:23:59.289Z,69.00
2019-02-26T00:26:28.282Z,68.70
2019-02-26T00:28:59.597Z,68.60
2019-02-26T00:31:28.854Z,69.20
2019-02-26T00:33:59.399Z,69.40
2019-02-26T00:36:29.727Z,68.60
2019-02-26T00:39:00.632Z,68.50
2019-02-26T00:41:31.835Z,68.40
2019-02-26T00:44:02.236Z,68.40
2019-02-26T00:46:32.517Z,68.20
2019-02-26T00:49:03.126Z,67.80
2019-02-26T00:51:33.355Z,67.70
2019-02-26T00:54:04.104Z,67.60
2019-02-26T00:56:34.050Z,67.60
2019-02-26T00:59:04.070Z,67.40
2019-02-26T01:01:33.549Z,67.30
2019-02-26T01:04:02.526Z,67.70
2019-02-26T01:06:33.432Z,67.60
2019-02-26T01:09:05.487Z,67.40
2019-02-26T01:11:33.157Z,67.40
2019-02-26T01:14:02.210Z,67.00
2019-02-26T01:16:31.546Z,67.00
2019-02-26T01:19:00.854Z,67.00
2019-02-26T01:21:31.111Z,66.80
2019-02-26T01:24:01.730Z,66.50
2019-02-26T01:26:31.610Z,66.20
2019-02-26T01:29:01.015Z,66.00
2019-02-26T01:31:33.880Z,65.90
2019-02-26T01:34:03.974Z,65.90
2019-02-26T01:36:33.030Z,65.60
2019-02-26T01:39:02.107Z,65.60
2019-02-26T01:41:31.149Z,65.50
2019-02-26T01:44:00.205Z,65.30
2019-02-26T01:46:32.130Z,65.00
2019-02-26T01:49:02.104Z,65.00
2019-02-26T01:51:31.613Z,65.10
2019-02-26T01:54:01.094Z,65.20
2019-02-26T01:56:30.078Z,65.40
2019-02-26T01:59:02.154Z,65.40
2019-02-26T02:01:30.074Z,65.30
2019-02-26T02:03:59.121Z,65.40
2019-02-26T02:06:30.173Z,65.70
2019-02-26T02:08:58.982Z,65.50
2019-02-26T02:11:29.403Z,65.30
2019-02-26T02:14:01.901Z,65.20
2019-02-26T02:16:31.401Z,65.50
2019-02-26T02:19:00.838Z,65.30
2019-02-26T02:21:31.508Z,65.20
2019-02-26T02:24:00.686Z,65.20
2019-02-26T02:26:29.742Z,65.10
2019-02-26T02:28:58.764Z,64.90
2019-02-26T02:31:31.268Z,64.80
2019-02-26T02:33:58.671Z,64.80
2019-02-26T02:36:28.228Z,64.80
2019-02-26T02:38:57.390Z,64.70
2019-02-26T02:41:26.684Z,64.70
2019-02-26T02:43:55.732Z,64.70
2019-02-26T02:46:24.988Z,64.70
2019-02-26T02:48:54.073Z,66.00
2019-02-26T02:51:25.532Z,66.60
2019-02-26T02:53:56.473Z,66.60
2019-02-26T02:56:24.755Z,67.20
2019-02-26T02:58:53.814Z,67.80
2019-02-26T03:01:25.819Z,68.30
2019-02-26T03:03:56.450Z,68.50
2019-02-26T03:06:27.290Z,69.20
2019-02-26T03:08:55.583Z,68.60
2019-02-26T03:11:24.739Z,68.70
2019-02-26T03:13:53.982Z,68.80
2019-02-26T03:16:25.036Z,68.80
2019-02-26T03:18:54.211Z,68.80
2019-02-26T03:21:24.665Z,68.70
2019-02-26T03:23:54.322Z,68.60
2019-02-26T03:26:25.295Z,68.40
2019-02-26T03:28:54.055Z,68.30
2019-02-26T03:31:28.782Z,68.20
2019-02-26T03:33:59.943Z,67.90
2019-02-26T03:36:25.043Z,67.80
2019-02-26T03:38:56.611Z,67.70
2019-02-26T03:41:26.162Z,67.50
2019-02-26T03:43:58.463Z,67.40
2019-02-26T03:46:26.984Z,67.30
2019-02-26T03:48:56.026Z,66.90
2019-02-26T03:51:25.081Z,66.90
2019-02-26T03:53:54.430Z,66.80
2019-02-26T03:56:23.500Z,66.60
2019-02-26T03:58:56.969Z,66.30
2019-02-26T04:01:24.994Z,66.30
2019-02-26T04:03:54.717Z,66.00
2019-02-26T04:06:24.851Z,66.00
2019-02-26T04:08:55.967Z,65.80
2019-02-26T04:11:27.671Z,65.80
2019-02-26T04:13:56.734Z,65.60
2019-02-26T04:16:26.060Z,65.50
2019-02-26T04:18:55.094Z,65.30
2019-02-26T04:21:24.160Z,65.20
2019-02-26T04:23:54.078Z,65.10
2019-02-26T04:27:01.178Z,64.80
2019-02-26T04:29:58.330Z,64.80
2019-02-26T04:33:06.573Z,64.70
2019-02-26T04:35:56.338Z,64.60
2019-02-26T04:38:50.739Z,64.30
2019-02-26T04:41:55.591Z,64.40
2019-02-26T04:45:09.244Z,64.10
2019-02-26T04:47:40.717Z,63.90
2019-02-26T04:50:10.308Z,63.80
2019-02-26T04:52:41.215Z,63.80
2019-02-26T04:55:10.728Z,63.80
2019-02-26T04:57:42.612Z,63.40
2019-02-26T05:00:11.294Z,63.30
2019-02-26T05:02:40.540Z,63.10
2019-02-26T05:05:09.540Z,63.10
2019-02-26T05:07:41.432Z,63.10
2019-02-26T05:10:09.759Z,63.00
2019-02-26T05:12:40.205Z,63.00
2019-02-26T05:15:14.007Z,62.90
2019-02-26T05:17:40.745Z,62.80
2019-02-26T05:20:12.999Z,62.70
2019-02-26T05:22:40.618Z,62.70
2019-02-26T05:25:13.974Z,62.60
2019-02-26T05:27:42.895Z,62.40
2019-02-26T05:30:15.542Z,62.30
2019-02-26T05:32:42.896Z,62.20
2019-02-26T05:35:14.160Z,62.10
2019-02-26T05:37:43.333Z,62.20
2019-02-26T05:40:15.369Z,62.10
2019-02-26T05:42:43.554Z,62.20
2019-02-26T05:45:12.625Z,61.90
2019-02-26T05:47:43.037Z,61.80
2019-02-26T05:50:16.111Z,61.90
2019-02-26T05:52:43.890Z,61.90
2019-02-26T05:55:14.618Z,61.60
2019-02-26T05:57:44.730Z,61.60
2019-02-26T06:00:17.230Z,61.50
2019-02-26T06:02:48.542Z,61.40
2019-02-26T06:05:18.386Z,61.30
2019-02-26T06:07:47.447Z,61.40
2019-02-26T06:10:18.898Z,61.20
2019-02-26T06:12:47.641Z,61.20
2019-02-26T06:15:23.015Z,61.10
2019-02-26T06:17:53.906Z,61.20
2019-02-26T06:20:26.721Z,61.20
2019-02-26T06:22:55.570Z,61.10
2019-02-26T06:25:24.836Z,61.10
2019-02-26T06:27:53.922Z,60.90
2019-02-26T06:30:23.091Z,60.90
2019-02-26T06:32:52.513Z,61.00
2019-02-26T06:35:22.361Z,60.80
2019-02-26T06:37:51.450Z,60.80
2019-02-26T06:40:20.548Z,60.70
2019-02-26T06:42:49.916Z,60.80
2019-02-26T06:45:19.581Z,60.70
2019-02-26T06:47:51.274Z,60.70
2019-02-26T06:50:19.637Z,60.10
2019-02-26T06:52:50.715Z,60.50
2019-02-26T06:55:20.111Z,60.50
2019-02-26T06:57:50.771Z,60.50
2019-02-26T07:00:23.789Z,60.30
2019-02-26T07:02:51.418Z,60.30
2019-02-26T07:05:23.807Z,60.20
2019-02-26T07:07:54.060Z,60.20
2019-02-26T07:10:25.996Z,60.00
2019-02-26T07:12:53.802Z,60.10
2019-02-26T07:15:23.392Z,60.40
2019-02-26T07:17:52.783Z,60.40
2019-02-26T07:20:21.880Z,60.30
2019-02-26T07:22:51.694Z,60.70
2019-02-26T07:25:21.071Z,60.60
2019-02-26T07:27:51.308Z,60.40
2019-02-26T07:30:21.014Z,60.30
2019-02-26T07:32:50.098Z,60.20
2019-02-26T07:35:19.539Z,60.80
2019-02-26T07:37:52.702Z,60.20
2019-02-26T07:40:22.939Z,60.00
2019-02-26T07:42:51.968Z,59.90
2019-02-26T07:45:22.877Z,59.80
2019-02-26T07:47:54.079Z,59.70
2019-02-26T07:50:23.318Z,59.60
2019-02-26T07:52:55.279Z,59.60
2019-02-26T07:55:24.219Z,59.60
2019-02-26T07:57:53.356Z,59.40
2019-02-26T08:00:24.017Z,59.60
2019-02-26T08:02:54.777Z,59.40
2019-02-26T08:05:26.202Z,59.40
2019-02-26T08:07:56.489Z,59.40
2019-02-26T08:10:25.798Z,59.40
2019-02-26T08:12:56.627Z,59.30
2019-02-26T08:15:27.852Z,59.30
2019-02-26T08:17:59.950Z,59.30
2019-02-26T08:20:30.216Z,59.30
2019-02-26T08:23:01.205Z,59.30
2019-02-26T08:25:29.769Z,59.20
2019-02-26T08:28:01.077Z,59.30
2019-02-26T08:30:29.797Z,59.30
2019-02-26T08:33:01.808Z,59.30
2019-02-26T08:35:30.477Z,59.30
2019-02-26T08:38:00.432Z,59.40
2019-02-26T08:40:29.487Z,59.30
2019-02-26T08:42:58.555Z,59.40
2019-02-26T08:45:28.011Z,59.10
2019-02-26T08:47:57.118Z,58.90
2019-02-26T08:50:28.494Z,58.80
2019-02-26T08:52:58.521Z,58.90
2019-02-26T08:55:27.806Z,59.00
2019-02-26T08:57:57.028Z,57.30
2019-02-26T09:00:26.862Z,57.60
2019-02-26T09:02:56.716Z,60.70
2019-02-26T09:05:28.235Z,61.90
2019-02-26T09:07:57.532Z,66.30
2019-02-26T09:10:26.598Z,62.80
2019-02-26T09:12:55.646Z,65.50
2019-02-26T09:15:24.834Z,65.90
2019-02-26T09:17:53.807Z,64.80
2019-02-26T09:20:22.850Z,67.00
2019-02-26T09:22:54.501Z,67.40
2019-02-26T09:25:25.957Z,67.80
2019-02-26T09:27:53.682Z,67.60
2019-02-26T09:30:22.735Z,67.50
2019-02-26T09:32:52.480Z,66.70
2019-02-26T09:35:27.050Z,64.90
2019-02-26T09:37:56.379Z,64.50
2019-02-26T09:40:26.562Z,64.10
2019-02-26T09:42:57.271Z,63.50
2019-02-26T09:45:29.589Z,66.40
2019-02-26T09:47:58.037Z,63.00
2019-02-26T09:50:27.453Z,69.40
2019-02-26T09:52:59.131Z,65.90
2019-02-26T09:55:27.727Z,63.80
2019-02-26T09:57:56.866Z,63.20
2019-02-26T10:00:29.316Z,62.40
2019-02-26T10:02:57.778Z,62.10
2019-02-26T10:05:26.835Z,61.90
2019-02-26T10:07:57.995Z,61.90
2019-02-26T10:10:29.115Z,61.50
2019-02-26T10:13:01.457Z,61.30
2019-02-26T10:15:28.574Z,61.00
2019-02-26T10:17:59.566Z,60.70
2019-02-26T10:20:31.694Z,60.60
2019-02-26T10:23:02.805Z,60.50
2019-02-26T10:25:32.114Z,60.30
2019-02-26T10:28:05.805Z,60.10
2019-02-26T10:30:33.969Z,60.00
2019-02-26T10:33:03.539Z,60.00
2019-02-26T10:35:33.701Z,71.20
2019-02-26T10:38:07.734Z,67.20
2019-02-26T10:40:50.195Z,66.50
2019-02-26T10:43:06.526Z,65.80
2019-02-26T10:45:41.644Z,65.40
2019-02-26T10:48:09.247Z,65.30
2019-02-26T10:50:40.379Z,65.60
2019-02-26T10:53:13.151Z,65.70
2019-02-26T10:55:41.801Z,64.60
2019-02-26T10:58:13.136Z,65.10
2019-02-26T11:00:41.603Z,60.90
2019-02-26T11:03:12.911Z,59.50
2019-02-26T11:05:42.632Z,60.80
2019-02-26T11:08:12.383Z,60.80
2019-02-26T11:10:43.910Z,63.20
2019-02-26T11:13:13.066Z,64.70
2019-02-26T11:15:43.802Z,63.50
2019-02-26T11:18:15.017Z,62.50
2019-02-26T11:20:45.843Z,62.10
2019-02-26T11:23:16.261Z,62.00
2019-02-26T11:25:45.584Z,61.70
2019-02-26T11:28:14.743Z,61.60
2019-02-26T11:30:46.550Z,61.40
2019-02-26T11:33:15.761Z,61.40
2019-02-26T11:35:47.149Z,61.30
2019-02-26T11:38:17.867Z,61.30
2019-02-26T11:40:47.682Z,61.40
2019-02-26T11:43:19.864Z,61.20
2019-02-26T11:45:48.303Z,61.90
2019-02-26T11:48:17.810Z,61.10
2019-02-26T11:50:47.195Z,61.00
2019-02-26T11:53:16.511Z,60.90
2019-02-26T11:55:45.483Z,60.80
2019-02-26T11:58:15.897Z,60.90
2019-02-26T12:03:25.420Z,60.90
2019-02-26T12:05:56.617Z,60.90
2019-02-26T12:08:26.218Z,60.90
2019-02-26T12:11:01.120Z,60.70
2019-02-26T12:13:27.657Z,60.80
2019-02-26T12:15:56.834Z,60.70
2019-02-26T12:18:26.007Z,60.60
2019-02-26T12:20:55.179Z,60.70
2019-02-26T12:23:24.244Z,60.70
2019-02-26T12:25:55.425Z,60.80
2019-02-26T12:28:25.473Z,60.60
2019-02-26T12:30:54.719Z,60.60
2019-02-26T12:33:23.695Z,60.60
2019-02-26T12:35:55.550Z,60.60
2019-02-26T12:38:23.888Z,60.60
2019-02-26T12:40:53.581Z,60.70
2019-02-26T12:43:22.860Z,60.60
2019-02-26T12:45:55.226Z,60.70
2019-02-26T12:48:22.840Z,60.50
2019-02-26T12:50:55.377Z,60.60
2019-02-26T12:53:23.693Z,60.70
2019-02-26T12:55:54.303Z,60.50
2019-02-26T12:58:26.804Z,60.60
2019-02-26T13:00:54.630Z,60.50
2019-02-26T13:03:23.919Z,60.60
2019-02-26T13:05:53.611Z,60.60
2019-02-26T13:08:24.116Z,60.70
2019-02-26T13:10:56.155Z,60.70
2019-02-26T13:13:24.088Z,60.70
2019-02-26T13:15:53.138Z,60.70
2019-02-26T13:18:22.194Z,60.70
2019-02-26T13:20:57.200Z,60.60
2019-02-26T13:23:22.866Z,60.60
2019-02-26T13:25:51.908Z,60.60
2019-02-26T13:28:20.882Z,60.70
2019-02-26T13:30:49.858Z,60.70
2019-02-26T13:33:22.223Z,60.80
2019-02-26T13:35:52.333Z,60.70
2019-02-26T13:38:24.542Z,60.60
2019-02-26T13:40:51.242Z,60.60
2019-02-26T13:43:20.699Z,60.80
2019-02-26T13:45:49.894Z,60.70
2019-02-26T13:48:19.014Z,60.60
2019-02-26T13:50:48.589Z,60.70
2019-02-26T13:53:17.669Z,60.70
2019-02-26T13:55:46.862Z,60.70
2019-02-26T13:58:15.926Z,60.70
2019-02-26T14:00:45.043Z,60.70
2019-02-26T14:03:14.648Z,60.80
2019-02-26T14:05:44.386Z,60.90
2019-02-26T14:08:13.497Z,60.90
2019-02-26T14:10:42.548Z,60.90
2019-02-26T14:13:11.926Z,60.90
2019-02-26T14:15:40.997Z,60.80
2019-02-26T14:18:10.035Z,60.90
2019-02-26T14:20:39.255Z,61.00
2019-02-26T14:23:08.299Z,60.80
2019-02-26T14:25:37.282Z,60.80
2019-02-26T14:28:06.265Z,60.90
2019-02-26T14:30:35.234Z,60.90
2019-02-26T14:33:04.696Z,61.10
2019-02-26T14:35:34.371Z,60.90
2019-02-26T14:38:03.738Z,61.00
2019-02-26T14:40:32.794Z,60.90
2019-02-26T14:43:02.337Z,60.90
2019-02-26T14:45:31.385Z,61.00
2019-02-26T14:48:00.270Z,61.10
2019-02-26T14:50:29.918Z,61.00
2019-02-26T14:52:58.895Z,61.00
2019-02-26T14:55:27.939Z,60.90
2019-02-26T14:57:57.008Z,61.10
2019-02-26T15:00:26.928Z,61.20
2019-02-26T15:02:56.489Z,61.10
2019-02-26T15:05:25.833Z,61.10
2019-02-26T15:07:55.907Z,61.20
2019-02-26T15:10:24.884Z,61.20
2019-02-26T15:12:54.389Z,61.20
2019-02-26T15:15:23.452Z,61.20
2019-02-26T15:17:52.484Z,61.20
2019-02-26T15:20:21.947Z,61.20
2019-02-26T15:22:50.931Z,61.30
2019-02-26T15:25:23.274Z,61.90
2019-02-26T15:27:52.328Z,61.30
2019-02-26T15:30:21.382Z,61.30
2019-02-26T15:32:50.436Z,61.40
2019-02-26T15:35:19.431Z,61.40
2019-02-26T15:37:48.482Z,61.40
2019-02-26T15:40:17.472Z,61.40
2019-02-26T15:42:47.185Z,61.50
2019-02-26T15:45:18.501Z,61.50
2019-02-26T15:47:48.024Z,61.60
2019-02-26T15:50:18.151Z,61.60
2019-02-26T15:52:47.407Z,61.60
2019-02-26T15:55:17.618Z,61.50
2019-02-26T15:57:46.947Z,61.50
2019-02-26T16:00:18.714Z,61.70
2019-02-26T16:02:48.613Z,61.50
2019-02-26T16:05:18.049Z,61.50
2019-02-26T16:07:47.459Z,61.60
2019-02-26T16:10:16.582Z,61.50
2019-02-26T16:12:46.118Z,61.40
2019-02-26T16:15:15.210Z,61.40
2019-02-26T16:17:44.350Z,61.40
2019-02-26T16:20:15.455Z,61.40
2019-02-26T16:22:44.707Z,61.30
2019-02-26T16:25:13.755Z,61.20
2019-02-26T16:27:42.894Z,61.10
2019-02-26T16:30:19.306Z,61.20
2019-02-26T16:32:49.005Z,61.10
2019-02-26T16:35:18.057Z,61.30
2019-02-26T16:37:47.102Z,61.00
2019-02-26T16:40:17.017Z,61.20
2019-02-26T16:42:46.075Z,61.30
2019-02-26T16:45:17.182Z,61.30
2019-02-26T16:47:48.681Z,61.20
2019-02-26T16:50:19.357Z,61.50
2019-02-26T16:52:48.538Z,61.40
2019-02-26T16:55:18.073Z,61.40
2019-02-26T16:57:47.616Z,61.50
2019-02-26T17:00:18.273Z,61.70
2019-02-26T17:02:47.467Z,61.90
2019-02-26T17:05:16.936Z,62.10
2019-02-26T17:07:46.355Z,61.90
2019-02-26T17:10:17.853Z,61.80
2019-02-26T17:12:52.990Z,61.80
2019-02-26T17:15:26.790Z,62.10
2019-02-26T17:17:54.725Z,62.30
2019-02-26T17:20:26.281Z,62.60
2019-02-26T17:22:54.975Z,62.60
2019-02-26T17:25:27.286Z,62.70
2019-02-26T17:27:54.825Z,62.40
2019-02-26T17:30:24.668Z,62.40
2019-02-26T17:32:54.085Z,62.50
2019-02-26T17:35:23.055Z,62.70
2019-02-26T17:37:52.154Z,62.80
2019-02-26T17:40:21.243Z,63.00
2019-02-26T17:42:51.266Z,63.10
2019-02-26T17:45:21.518Z,63.20
2019-02-26T17:47:50.672Z,63.20
2019-02-26T17:50:22.756Z,64.00
2019-02-26T17:52:52.185Z,63.50
2019-02-26T17:55:21.155Z,63.30
2019-02-26T17:57:50.125Z,63.30
2019-02-26T18:00:21.235Z,63.40
2019-02-26T18:02:50.283Z,63.50
2019-02-26T18:05:19.472Z,63.70
2019-02-26T18:07:49.521Z,63.90
2019-02-26T18:10:20.075Z,64.00
2019-02-26T18:12:49.116Z,64.10
2019-02-26T18:15:18.501Z,64.20
2019-02-26T18:17:47.677Z,64.30
2019-02-26T18:20:17.714Z,64.40
2019-02-26T18:22:47.162Z,64.70
2019-02-26T18:25:16.885Z,64.80
2019-02-26T18:27:46.706Z,64.90
2019-02-26T18:30:18.039Z,65.80
2019-02-26T18:32:50.247Z,65.30
2019-02-26T18:35:17.887Z,65.40
2019-02-26T18:37:46.963Z,65.30
2019-02-26T18:40:16.460Z,65.30
2019-02-26T18:42:45.535Z,65.20
2019-02-26T18:45:17.294Z,65.60
2019-02-26T18:47:47.658Z,65.50
2019-02-26T18:50:16.783Z,65.50
2019-02-26T18:52:46.114Z,65.40
2019-02-26T18:55:16.914Z,65.70
2019-02-26T18:57:45.980Z,66.10
2019-02-26T19:00:18.302Z,66.30
2019-02-26T19:02:47.340Z,66.40
2019-02-26T19:05:20.473Z,66.30
2019-02-26T19:07:47.296Z,66.40
2019-02-26T19:10:20.647Z,66.30
2019-02-26T19:12:50.048Z,66.50
2019-02-26T19:15:19.707Z,66.20
2019-02-26T19:17:50.334Z,65.90
2019-02-26T19:20:21.756Z,65.70
2019-02-26T19:22:52.015Z,65.80
2019-02-26T19:25:21.415Z,65.70
2019-02-26T19:27:52.838Z,65.70
2019-02-26T19:30:21.694Z,65.80
2019-02-26T19:32:50.753Z,65.90
2019-02-26T19:35:20.204Z,65.50
2019-02-26T19:37:52.738Z,65.40
2019-02-26T19:40:24.926Z,65.30
2019-02-26T19:42:53.895Z,65.30
2019-02-26T19:45:22.946Z,65.30
2019-02-26T19:47:55.775Z,65.30
2019-02-26T19:50:23.556Z,65.30
2019-02-26T19:52:56.920Z,64.50
2019-02-26T19:55:26.438Z,64.50
2019-02-26T19:57:55.436Z,64.30
2019-02-26T20:00:24.501Z,64.60
2019-02-26T20:02:53.841Z,64.80
2019-02-26T20:05:22.886Z,64.70
2019-02-26T20:07:53.278Z,64.40
2019-02-26T20:10:22.591Z,64.10
2019-02-26T20:12:51.634Z,64.20
2019-02-26T20:15:21.909Z,64.30
2019-02-26T20:17:51.444Z,64.30
2019-02-26T20:20:20.514Z,64.50
2019-02-26T20:22:49.975Z,64.60
2019-02-26T20:25:19.249Z,65.00
2019-02-26T20:27:48.303Z,65.00
2019-02-26T20:30:18.763Z,65.10
2019-02-26T20:32:47.811Z,65.50
2019-02-26T20:35:16.844Z,64.90
2019-02-26T20:37:45.909Z,64.80
2019-02-26T20:40:16.994Z,64.60
2019-02-26T20:42:46.042Z,64.80
2019-02-26T20:45:18.762Z,65.00
2019-02-26T20:47:48.314Z,65.10
2019-02-26T20:50:19.887Z,65.20
2019-02-26T20:52:48.421Z,64.60
2019-02-26T20:55:19.203Z,64.40
2019-02-26T20:57:49.107Z,64.50
2019-02-26T21:00:24.976Z,64.60
2019-02-26T21:02:51.935Z,64.60
2019-02-26T21:05:21.053Z,64.90
2019-02-26T21:07:50.073Z,64.80
2019-02-26T21:10:19.695Z,65.00
2019-02-26T21:12:48.757Z,65.00
2019-02-26T21:15:18.433Z,65.30
2019-02-26T21:17:47.474Z,65.40
2019-02-26T21:20:16.430Z,65.00
2019-02-26T21:22:45.532Z,64.80
2019-02-26T21:25:14.535Z,64.60
2019-02-26T21:27:43.573Z,64.80
2019-02-26T21:30:14.978Z,64.80
2019-02-26T21:32:44.020Z,64.90
2019-02-26T21:35:13.111Z,64.80
2019-02-26T21:37:42.175Z,65.10
2019-02-26T21:40:15.873Z,65.10
2019-02-26T21:42:42.873Z,65.30
2019-02-26T21:45:15.962Z,65.70
2019-02-26T21:47:43.924Z,65.30
2019-02-26T21:50:13.443Z,65.00
2019-02-26T21:52:43.290Z,65.00
2019-02-26T21:55:12.521Z,65.00
2019-02-26T21:57:41.580Z,65.10
2019-02-26T22:00:17.028Z,65.10
2019-02-26T22:02:46.291Z,65.20
2019-02-26T22:05:15.277Z,65.40
2019-02-26T22:07:44.354Z,65.60
2019-02-26T22:10:15.308Z,65.60
2019-02-26T22:12:44.682Z,65.50
2019-02-26T22:15:14.126Z,65.40
2019-02-26T22:17:43.731Z,65.40
2019-02-26T22:20:21.999Z,65.70
2019-02-26T22:22:45.074Z,65.80
2019-02-26T22:25:17.128Z,65.80
2019-02-26T22:27:44.926Z,65.90
2019-02-26T22:30:15.505Z,66.20
2019-02-26T22:32:44.545Z,66.30
2019-02-26T22:35:13.752Z,66.50
2019-02-26T22:37:42.883Z,62.10
2019-02-26T22:40:11.994Z,65.90
2019-02-26T22:42:41.335Z,70.90
2019-02-26T22:45:11.495Z,75.10
2019-02-26T22:47:41.238Z,74.50
2019-02-26T22:50:12.129Z,73.00
2019-02-26T22:52:41.248Z,73.00
2019-02-26T22:55:10.842Z,72.80
2019-02-26T22:57:40.005Z,74.60
2019-02-26T23:00:35.213Z,76.50
2019-02-26T23:03:04.296Z,77.30
2019-02-26T23:05:33.642Z,79.00
2019-02-26T23:08:02.797Z,76.90
2019-02-26T23:10:32.355Z,74.90
2019-02-26T23:13:01.499Z,75.70
2019-02-26T23:15:31.395Z,77.50
2019-02-26T23:18:00.623Z,77.90
2019-02-26T23:20:29.679Z,81.60
2019-02-26T23:22:58.774Z,77.50
2019-02-26T23:25:27.842Z,78.50
2019-02-26T23:27:56.850Z,85.20
2019-02-26T23:30:27.186Z,76.10
2019-02-26T23:32:57.003Z,72.30
2019-02-26T23:35:26.052Z,70.90
2019-02-26T23:37:55.526Z,70.30
2019-02-26T23:40:24.931Z,70.40
2019-02-26T23:42:55.360Z,70.00
2019-02-26T23:45:24.852Z,70.10
2019-02-26T23:47:54.100Z,70.10
2019-02-26T23:50:23.207Z,70.00
2019-02-26T23:52:52.654Z,70.10
2019-02-26T23:55:21.732Z,69.70
2019-02-26T23:57:50.777Z,69.70
